Los Lunas, NM (87031)

07:04:MST den 06. mars 2015 (GMT -0700)
Valencia Y | Change Station
CLOSE
Current Station
Personlig værstasjon
Location: Los Lunas, NM
Høyde over havet: 4852 ft
Nearby Weather Stations

H.o.h 4852 ft 34.81 °N, 106.70 °W | Updated 5 seconds ago

Klart
Klart
24.0 °F
Feels Like 24 °F
N
0.0
Vind Variabel Vind from VNV
Gusts 0.0 mph

I dag
High -- | Low -- °F
--% Chance of Precip.
I går
High -- | Low -- °F
Precip. -- tommer
6:29 AM 6:06 PM
Trekvart økende, 99% visible
Lufttrykk 30.39 tommer
Sikt 10.0 eng. mil
Skyet Klart
Nedkjølingseffekt 24 °F
Duggpunkt 18 °F
Fuktighet 70%
Regn tommer
Snødybde Not available.
UV 0 av 12
Pollen 5.30 av 12
Luftkvalitet Not available.
Flu Activity Not available.
METAR KE80 061355Z AUTO 31005KT 10SM CLR M05/M09 A3039 RMK AO2 T10511094

More Conditions Fewer Conditions

Lufttrykk 30.39 tommer
Sikt 10.0 eng. mil
Skyet Klart
Nedkjølingseffekt 24 °F
Duggpunkt 18 °F
Fuktighet 70%
Regn tommer
Snødybde Not available.
UV 0 av 12
Pollen 5.30 av 12
Luftkvalitet Not available.
Flu Activity Not available.
METAR KE80 061355Z AUTO 31005KT 10SM CLR M05/M09 A3039 RMK AO2 T10511094

More Conditions Fewer Conditions

10-Day Weather Forecast

Almanac

Astronomi

Mar. 06, 2015 Oppgang Nedgang
Virkelig tid
Tussmørke
Nautisk skumring
Astronomisk skumring
Månen
Lengde av synlig lys
Dagens lengde
Tomorrow will be .
, % of the Moon is Illuminated

Dagens maks og min

State Highs State Lows

Community

WunderPhotos

Upload Photos

1,803,274 photos uploaded!

WunderBlogs® & News

Nearby

Luftkvalitet

  Luftkvalitet AQ Indeks Forurensing
Not available.

Snødybde

Stasjon Depth Høyde over havet

Earthquake Activity

By Distance Mag. Time & Date
Minimum magnitude displayed is 2.5.

Coastal Water Temperatures

Sted Temperatur

Nearby Weather Stations